createdAt,value
2023-06-24T00:02:25.327Z,29.31
2023-06-24T00:04:53.126Z,29.31
2023-06-24T00:07:23.364Z,29.32
2023-06-24T00:09:50.271Z,29.33
2023-06-24T00:12:20.351Z,29.29
2023-06-24T00:14:51.529Z,29.30
2023-06-24T00:17:18.174Z,29.28
2023-06-24T00:19:47.560Z,29.27
2023-06-24T00:22:15.889Z,29.26
2023-06-24T00:24:44.051Z,29.27
2023-06-24T00:27:11.169Z,29.25
2023-06-24T00:29:37.845Z,29.25
2023-06-24T00:32:04.739Z,29.25
2023-06-24T00:34:31.271Z,29.23
2023-06-24T00:36:57.794Z,29.24
2023-06-24T00:39:24.902Z,29.24
2023-06-24T00:41:51.580Z,29.23
2023-06-24T00:44:19.309Z,29.24
2023-06-24T00:46:46.344Z,29.21
2023-06-24T00:49:14.979Z,29.22
2023-06-24T00:51:48.476Z,29.22
2023-06-24T00:54:15.346Z,29.21
2023-06-24T00:56:43.890Z,29.19
2023-06-24T00:59:15.991Z,29.20
2023-06-24T01:01:42.710Z,29.19
2023-06-24T01:04:09.705Z,29.19
2023-06-24T01:06:37.397Z,29.18
2023-06-24T01:09:06.207Z,29.15
2023-06-24T01:11:33.301Z,29.16
2023-06-24T01:13:59.974Z,29.14
2023-06-24T01:16:43.443Z,29.15
2023-06-24T01:19:18.969Z,29.13
2023-06-24T01:22:27.363Z,29.12
2023-06-24T01:25:02.782Z,29.12
2023-06-24T01:27:38.752Z,29.11
2023-06-24T01:30:28.277Z,29.12
2023-06-24T01:33:05.784Z,29.11
2023-06-24T01:35:35.874Z,29.12
2023-06-24T01:38:08.063Z,29.11
2023-06-24T01:40:42.857Z,29.07
2023-06-24T01:43:10.902Z,29.05
2023-06-24T01:45:43.667Z,29.05
2023-06-24T01:48:29.531Z,29.03
2023-06-24T01:51:09.235Z,29.04
2023-06-24T01:53:41.130Z,29.04
2023-06-24T01:56:09.602Z,29.03
2023-06-24T01:58:37.081Z,29.01
2023-06-24T02:01:05.016Z,29.00
2023-06-24T02:03:33.957Z,29.00
2023-06-24T02:06:01.995Z,28.99
2023-06-24T02:08:35.343Z,29.01
2023-06-24T02:11:03.365Z,29.00
2023-06-24T02:13:33.492Z,28.99
2023-06-24T02:16:01.138Z,29.00
2023-06-24T02:18:28.698Z,28.98
2023-06-24T02:20:58.060Z,28.97
2023-06-24T02:23:25.022Z,28.97
2023-06-24T02:25:52.076Z,28.96
2023-06-24T02:28:19.748Z,28.98
2023-06-24T02:30:47.351Z,28.94
2023-06-24T02:33:14.112Z,28.96
2023-06-24T02:35:42.769Z,28.96
2023-06-24T02:38:09.942Z,28.95
2023-06-24T02:40:37.063Z,28.93
2023-06-24T02:43:03.597Z,28.92
2023-06-24T02:45:31.066Z,28.93
2023-06-24T02:47:59.523Z,28.90
2023-06-24T02:50:26.747Z,28.89
2023-06-24T02:52:53.628Z,28.89
2023-06-24T02:55:20.922Z,28.89
2023-06-24T02:57:48.734Z,28.90
2023-06-24T03:00:16.057Z,28.87
2023-06-24T03:02:44.327Z,28.88
2023-06-24T03:05:11.992Z,28.88
2023-06-24T03:07:39.669Z,28.87
2023-06-24T03:10:06.985Z,28.86
2023-06-24T03:12:33.997Z,28.85
2023-06-24T03:15:02.006Z,28.85
2023-06-24T03:17:29.097Z,28.84
2023-06-24T03:19:55.791Z,28.83
2023-06-24T03:22:23.485Z,28.83
2023-06-24T03:24:50.254Z,28.82
2023-06-24T03:27:16.908Z,28.82
2023-06-24T03:29:43.425Z,28.83
2023-06-24T03:32:09.922Z,28.81
2023-06-24T03:34:36.683Z,28.80
2023-06-24T03:37:05.358Z,28.80
2023-06-24T03:39:31.922Z,28.81
2023-06-24T03:41:58.611Z,28.80
2023-06-24T03:44:25.121Z,28.75
2023-06-24T03:46:51.759Z,28.78
2023-06-24T03:49:19.121Z,28.76
2023-06-24T03:51:45.738Z,28.77
2023-06-24T03:54:12.413Z,28.77
2023-06-24T03:56:39.301Z,28.76
2023-06-24T03:59:06.970Z,28.75
2023-06-24T04:01:33.949Z,28.76
2023-06-24T04:04:00.663Z,28.75
2023-06-24T04:06:27.338Z,28.74
2023-06-24T04:08:54.197Z,28.72
2023-06-24T04:11:20.691Z,28.71
2023-06-24T04:13:49.425Z,28.71
2023-06-24T04:16:16.193Z,28.73
2023-06-24T04:18:43.044Z,28.71
2023-06-24T04:21:09.670Z,28.69
2023-06-24T04:23:36.301Z,28.69
2023-06-24T04:26:03.148Z,28.70
2023-06-24T04:28:29.698Z,28.68
2023-06-24T04:30:57.350Z,28.68
2023-06-24T04:33:25.378Z,28.63
2023-06-24T04:35:52.622Z,28.53
2023-06-24T04:38:19.632Z,28.43
2023-06-24T04:40:46.559Z,28.31
2023-06-24T04:43:13.132Z,28.25
2023-06-24T04:45:39.736Z,28.26
2023-06-24T04:48:06.641Z,28.17
2023-06-24T04:50:33.464Z,28.16
2023-06-24T04:53:02.903Z,28.12
2023-06-24T04:55:31.104Z,28.08
2023-06-24T04:57:57.630Z,27.95
2023-06-24T05:00:25.433Z,27.99
2023-06-24T05:02:53.072Z,27.99
2023-06-24T05:05:21.670Z,27.87
2023-06-24T05:07:48.629Z,27.75
2023-06-24T05:10:15.560Z,27.86
2023-06-24T05:12:42.543Z,27.82
2023-06-24T05:15:09.432Z,27.71
2023-06-24T05:17:36.067Z,27.72
2023-06-24T05:20:04.054Z,27.71
2023-06-24T05:22:30.692Z,27.57
2023-06-24T05:24:57.244Z,27.64
2023-06-24T05:27:23.896Z,27.66
2023-06-24T05:29:50.487Z,27.65
2023-06-24T05:32:18.583Z,27.62
2023-06-24T05:34:45.188Z,27.49
2023-06-24T05:37:11.767Z,27.54
2023-06-24T05:39:38.456Z,27.62
2023-06-24T05:42:05.265Z,27.50
2023-06-24T05:44:32.411Z,27.52
2023-06-24T05:46:58.977Z,27.40
2023-06-24T05:49:25.535Z,27.38
2023-06-24T05:51:52.077Z,27.39
2023-06-24T05:54:18.628Z,27.46
2023-06-24T05:56:45.164Z,27.37
2023-06-24T05:59:11.709Z,27.28
2023-06-24T06:01:38.410Z,27.34
2023-06-24T06:04:05.133Z,27.41
2023-06-24T06:06:31.707Z,27.36
2023-06-24T06:08:58.818Z,27.29
2023-06-24T06:11:25.482Z,27.30
2023-06-24T06:13:53.527Z,27.26
2023-06-24T06:16:20.069Z,27.24
2023-06-24T06:18:46.649Z,27.20
2023-06-24T06:21:13.187Z,27.09
2023-06-24T06:23:39.728Z,27.14
2023-06-24T06:26:06.553Z,27.10
2023-06-24T06:28:33.152Z,27.05
2023-06-24T06:30:59.769Z,26.98
2023-06-24T06:33:26.370Z,27.04
2023-06-24T06:35:53.112Z,27.02
2023-06-24T06:38:19.633Z,26.94
2023-06-24T06:40:46.417Z,27.05
2023-06-24T06:43:12.937Z,27.05
2023-06-24T06:48:09.720Z,27.09
2023-06-24T06:50:36.848Z,27.04
2023-06-24T06:53:03.495Z,27.00
2023-06-24T06:55:30.593Z,26.98
2023-06-24T06:57:57.340Z,26.98
2023-06-24T07:00:24.054Z,26.99
2023-06-24T07:02:50.635Z,26.99
2023-06-24T07:05:17.252Z,26.85
2023-06-24T07:07:46.344Z,26.88
2023-06-24T07:10:13.529Z,26.91
2023-06-24T07:12:41.050Z,26.89
2023-06-24T07:15:08.468Z,26.86
2023-06-24T07:17:35.671Z,26.81
2023-06-24T07:20:02.368Z,26.84
2023-06-24T07:22:28.981Z,26.85
2023-06-24T07:24:57.294Z,26.89
2023-06-24T07:27:24.271Z,26.96
2023-06-24T07:29:50.835Z,26.97
2023-06-24T07:32:17.351Z,26.96
2023-06-24T07:34:43.866Z,26.84
2023-06-24T07:37:22.754Z,26.92
2023-06-24T07:39:50.455Z,26.92
2023-06-24T07:42:19.924Z,26.87
2023-06-24T07:44:47.209Z,26.86
2023-06-24T07:47:13.880Z,26.89
2023-06-24T07:49:40.520Z,26.94
2023-06-24T07:52:07.607Z,26.88
2023-06-24T07:54:35.035Z,26.93
2023-06-24T07:57:01.644Z,26.90
2023-06-24T07:59:28.279Z,26.94
2023-06-24T08:01:54.829Z,26.86
2023-06-24T08:04:21.544Z,26.83
2023-06-24T08:06:48.293Z,26.80
2023-06-24T08:09:17.783Z,26.89
2023-06-24T08:11:45.053Z,26.79
2023-06-24T08:14:11.704Z,26.87
2023-06-24T08:16:38.794Z,26.87
2023-06-24T08:19:05.398Z,26.83
2023-06-24T08:21:32.005Z,26.87
2023-06-24T08:23:58.601Z,26.88
2023-06-24T08:26:25.141Z,26.84
2023-06-24T08:28:51.677Z,26.84
2023-06-24T08:31:18.352Z,26.89
2023-06-24T08:33:48.604Z,26.86
2023-06-24T08:36:15.356Z,26.83
2023-06-24T08:38:41.891Z,26.81
2023-06-24T08:41:08.639Z,26.82
2023-06-24T08:43:35.464Z,26.87
2023-06-24T08:46:02.236Z,26.90
2023-06-24T08:48:31.188Z,26.86
2023-06-24T08:50:59.697Z,26.85
2023-06-24T08:53:28.253Z,26.80
2023-06-24T08:55:55.345Z,26.78
2023-06-24T08:58:22.721Z,26.88
2023-06-24T09:00:49.309Z,26.85
2023-06-24T09:03:15.951Z,26.89
2023-06-24T09:05:42.672Z,26.90
2023-06-24T09:08:09.205Z,26.92
2023-06-24T09:10:37.610Z,26.90
2023-06-24T09:13:05.953Z,26.88
2023-06-24T09:15:33.838Z,26.90
2023-06-24T09:18:01.567Z,26.94
2023-06-24T09:20:28.939Z,26.92
2023-06-24T09:23:04.857Z,26.95
2023-06-24T09:25:31.878Z,26.98
2023-06-24T09:28:02.133Z,27.02
2023-06-24T09:30:28.617Z,27.05
2023-06-24T09:32:56.234Z,27.08
2023-06-24T09:35:24.997Z,27.11
2023-06-24T09:37:55.790Z,27.15
2023-06-24T09:40:23.212Z,27.17
2023-06-24T09:42:57.707Z,27.21
2023-06-24T09:45:26.246Z,27.23
2023-06-24T09:47:53.739Z,27.24
2023-06-24T09:50:21.112Z,27.26
2023-06-24T09:52:49.677Z,27.28
2023-06-24T09:55:18.701Z,27.27
2023-06-24T09:57:52.294Z,27.28
2023-06-24T10:00:23.480Z,27.29
2023-06-24T10:02:54.716Z,27.32
2023-06-24T10:05:21.627Z,27.32
2023-06-24T10:07:48.814Z,27.33
2023-06-24T10:10:15.805Z,27.35
2023-06-24T10:12:42.360Z,27.36
2023-06-24T10:15:09.416Z,27.36
2023-06-24T10:17:36.068Z,27.36
2023-06-24T10:20:07.403Z,27.41
2023-06-24T10:22:34.508Z,27.41
2023-06-24T10:25:02.928Z,27.43
2023-06-24T10:27:33.229Z,27.45
2023-06-24T10:30:03.811Z,27.45
2023-06-24T10:32:42.604Z,27.47
2023-06-24T10:35:23.822Z,27.47
2023-06-24T10:38:01.644Z,27.49
2023-06-24T10:40:43.282Z,27.51
2023-06-24T10:43:24.947Z,27.52
2023-06-24T10:46:00.176Z,27.54
2023-06-24T10:48:27.385Z,27.56
2023-06-24T10:50:54.075Z,27.56
2023-06-24T10:53:23.215Z,27.57
2023-06-24T10:55:49.934Z,27.57
2023-06-24T10:58:17.039Z,27.59
2023-06-24T11:00:45.064Z,27.62
2023-06-24T11:03:13.437Z,27.63
2023-06-24T11:05:45.008Z,27.63
2023-06-24T11:08:12.001Z,27.65
2023-06-24T11:10:49.678Z,27.66
2023-06-24T11:13:21.014Z,27.66
2023-06-24T11:15:47.604Z,27.68
2023-06-24T11:18:14.156Z,27.70
2023-06-24T11:20:41.606Z,27.70
2023-06-24T11:23:12.310Z,27.72
2023-06-24T11:25:43.860Z,27.73
2023-06-24T11:28:22.166Z,27.75
2023-06-24T11:30:49.504Z,27.76
2023-06-24T11:33:28.166Z,27.77
2023-06-24T11:35:54.794Z,27.77
2023-06-24T11:38:21.315Z,27.79
2023-06-24T11:40:49.922Z,27.81
2023-06-24T11:43:16.524Z,27.82
2023-06-24T11:45:43.027Z,27.84
2023-06-24T11:48:09.582Z,27.86
2023-06-24T11:50:38.154Z,27.87
2023-06-24T11:53:06.023Z,27.88
2023-06-24T11:55:33.131Z,27.88
2023-06-24T11:58:06.118Z,27.90
2023-06-24T12:00:44.964Z,27.90
2023-06-24T12:03:13.257Z,27.91
2023-06-24T12:05:45.968Z,27.95
2023-06-24T12:08:17.625Z,27.96
2023-06-24T12:10:46.124Z,27.96
2023-06-24T12:13:13.203Z,27.99
2023-06-24T12:15:39.761Z,27.99
2023-06-24T12:18:06.865Z,28.01
2023-06-24T12:20:37.814Z,28.03
2023-06-24T12:23:05.450Z,28.04
2023-06-24T12:25:32.144Z,28.05
2023-06-24T12:28:00.717Z,28.08
2023-06-24T12:30:27.819Z,28.12
2023-06-24T12:32:54.465Z,28.10
2023-06-24T12:35:21.335Z,28.12
2023-06-24T12:37:48.964Z,28.14
2023-06-24T12:40:15.545Z,28.15
2023-06-24T12:42:42.116Z,28.18
2023-06-24T12:45:09.161Z,28.19
2023-06-24T12:47:35.863Z,28.20
2023-06-24T12:50:02.483Z,28.21
2023-06-24T12:52:29.078Z,28.23
2023-06-24T12:54:55.621Z,28.24
2023-06-24T12:57:22.175Z,28.27
2023-06-24T12:59:48.859Z,28.27
2023-06-24T13:02:15.375Z,28.29
2023-06-24T13:04:41.923Z,28.30
2023-06-24T13:07:10.773Z,28.31
2023-06-24T13:09:37.543Z,28.32
2023-06-24T13:12:04.995Z,28.35
2023-06-24T13:14:31.646Z,28.34
2023-06-24T13:16:58.212Z,28.36
2023-06-24T13:19:24.921Z,28.38
2023-06-24T13:21:51.619Z,28.38
2023-06-24T13:24:18.278Z,28.41
2023-06-24T13:26:45.798Z,28.42
2023-06-24T13:29:12.674Z,28.45
2023-06-24T13:31:39.302Z,28.44
2023-06-24T13:34:06.003Z,28.46
2023-06-24T13:36:36.263Z,28.47
2023-06-24T13:39:07.722Z,28.50
2023-06-24T13:41:35.014Z,28.52
2023-06-24T13:44:02.953Z,28.52
2023-06-24T13:46:31.273Z,28.54
2023-06-24T13:48:59.517Z,28.55
2023-06-24T13:51:26.443Z,28.58
2023-06-24T13:53:55.516Z,28.59
2023-06-24T13:56:24.533Z,28.59
2023-06-24T13:58:52.591Z,28.61
2023-06-24T14:01:19.884Z,28.62
2023-06-24T14:03:46.988Z,28.64
2023-06-24T14:06:18.234Z,28.64
2023-06-24T14:08:45.016Z,28.65
2023-06-24T14:11:12.086Z,28.67
2023-06-24T14:13:38.719Z,28.68
2023-06-24T14:16:05.540Z,28.70
2023-06-24T14:18:33.020Z,28.72
2023-06-24T14:21:01.009Z,28.74
2023-06-24T14:23:28.476Z,28.75
2023-06-24T14:25:55.464Z,28.75
2023-06-24T14:28:22.415Z,28.77
2023-06-24T14:30:49.219Z,28.78
2023-06-24T14:33:16.425Z,28.80
2023-06-24T14:35:43.118Z,28.80
2023-06-24T14:38:09.676Z,28.83
2023-06-24T14:40:36.483Z,28.83
2023-06-24T14:43:03.244Z,28.86
2023-06-24T14:45:30.031Z,28.87
2023-06-24T14:47:58.198Z,28.89
2023-06-24T14:50:25.301Z,28.90
2023-06-24T14:52:51.872Z,28.91
2023-06-24T14:55:18.540Z,28.91
2023-06-24T14:57:45.080Z,28.92
2023-06-24T15:00:13.007Z,28.95
2023-06-24T15:02:39.778Z,28.96
2023-06-24T15:05:06.847Z,28.95
2023-06-24T15:07:33.540Z,28.99
2023-06-24T15:10:00.160Z,28.99
2023-06-24T15:12:26.965Z,29.00
2023-06-24T15:14:53.494Z,29.01
2023-06-24T15:17:20.362Z,29.03
2023-06-24T15:19:47.978Z,29.05
2023-06-24T15:22:14.518Z,29.05
2023-06-24T15:24:41.159Z,29.06
2023-06-24T15:27:07.711Z,29.08
2023-06-24T15:29:35.415Z,29.11
2023-06-24T15:32:02.545Z,29.09
2023-06-24T15:34:29.551Z,29.12
2023-06-24T15:36:56.182Z,29.14
2023-06-24T15:39:22.940Z,29.14
2023-06-24T15:41:51.148Z,29.15
2023-06-24T15:44:18.567Z,29.17
2023-06-24T15:46:48.254Z,29.18
2023-06-24T15:49:16.423Z,29.21
2023-06-24T15:51:43.489Z,29.21
2023-06-24T15:54:10.234Z,29.21
2023-06-24T15:56:36.836Z,29.23
2023-06-24T15:59:03.551Z,29.24
2023-06-24T16:01:30.396Z,29.26
2023-06-24T16:03:57.136Z,29.27
2023-06-24T16:06:24.560Z,29.27
2023-06-24T16:08:51.793Z,29.29
2023-06-24T16:11:18.798Z,29.29
2023-06-24T16:13:45.424Z,29.31
2023-06-24T16:16:12.417Z,29.32
2023-06-24T16:18:39.418Z,29.33
2023-06-24T16:21:06.461Z,29.33
2023-06-24T16:23:33.125Z,29.36
2023-06-24T16:26:00.648Z,29.35
2023-06-24T16:28:27.275Z,29.38
2023-06-24T16:30:53.915Z,29.38
2023-06-24T16:33:20.518Z,29.39
2023-06-24T16:35:47.073Z,29.40
2023-06-24T16:38:13.636Z,29.42
2023-06-24T16:40:40.152Z,29.44
2023-06-24T16:43:06.665Z,29.45
2023-06-24T16:45:33.254Z,29.44
2023-06-24T16:48:00.063Z,29.45
2023-06-24T16:50:26.676Z,29.47
2023-06-24T16:52:53.260Z,29.47
2023-06-24T16:55:19.908Z,29.48
2023-06-24T16:57:46.578Z,29.49
2023-06-24T17:00:14.093Z,29.51
2023-06-24T17:02:42.461Z,29.53
2023-06-24T17:05:09.260Z,29.54
2023-06-24T17:07:35.906Z,29.56
2023-06-24T17:10:03.730Z,29.56
2023-06-24T17:12:30.319Z,29.56
2023-06-24T17:14:56.835Z,29.58
2023-06-24T17:17:23.403Z,29.58
2023-06-24T17:19:49.982Z,29.58
2023-06-24T17:22:16.636Z,29.59
2023-06-24T17:24:43.251Z,29.61
2023-06-24T17:27:09.809Z,29.60
2023-06-24T17:29:37.363Z,29.60
2023-06-24T17:32:04.189Z,29.61
2023-06-24T17:34:30.718Z,29.61
2023-06-24T17:36:57.242Z,29.63
2023-06-24T17:39:25.411Z,29.62
2023-06-24T17:41:54.195Z,29.64
2023-06-24T17:44:20.723Z,29.64
2023-06-24T17:46:47.277Z,29.64
2023-06-24T17:49:13.897Z,29.65
2023-06-24T17:51:40.448Z,29.66
2023-06-24T17:54:06.983Z,29.67
2023-06-24T17:56:35.065Z,29.68
2023-06-24T17:59:01.784Z,29.66
2023-06-24T18:01:30.405Z,29.68
2023-06-24T18:03:57.290Z,29.68
2023-06-24T18:06:24.241Z,29.69
2023-06-24T18:08:50.989Z,29.70
2023-06-24T18:11:17.555Z,29.71
2023-06-24T18:13:44.057Z,29.70
2023-06-24T18:16:10.713Z,29.70
2023-06-24T18:18:37.224Z,29.68
2023-06-24T18:21:03.814Z,29.70
2023-06-24T18:23:30.422Z,29.71
2023-06-24T18:25:56.949Z,29.70
2023-06-24T18:28:23.489Z,29.73
2023-06-24T18:30:50.057Z,29.73
2023-06-24T18:33:16.579Z,29.72
2023-06-24T18:35:43.093Z,29.73
2023-06-24T18:38:10.315Z,29.74
2023-06-24T18:40:37.198Z,29.74
2023-06-24T18:43:05.669Z,29.75
2023-06-24T18:45:32.232Z,29.76
2023-06-24T18:47:58.829Z,29.76
2023-06-24T18:50:25.520Z,29.74
2023-06-24T18:52:52.039Z,29.76
2023-06-24T18:55:18.711Z,29.77
2023-06-24T18:57:45.356Z,29.76
2023-06-24T19:00:12.561Z,29.79
2023-06-24T19:02:39.216Z,29.76
2023-06-24T19:05:06.002Z,29.74
2023-06-24T19:07:32.573Z,29.75
2023-06-24T19:10:00.010Z,29.76
2023-06-24T19:12:27.764Z,29.77
2023-06-24T19:14:54.264Z,29.76
2023-06-24T19:17:20.825Z,29.74
2023-06-24T19:19:47.348Z,29.76
2023-06-24T19:22:13.871Z,29.77
2023-06-24T19:24:40.469Z,29.79
2023-06-24T19:27:07.074Z,29.77
2023-06-24T19:29:33.643Z,29.76
2023-06-24T19:32:00.231Z,29.75
2023-06-24T19:34:26.897Z,29.75
2023-06-24T19:36:55.934Z,29.77
2023-06-24T19:39:22.535Z,29.76
2023-06-24T19:41:49.091Z,29.77
2023-06-24T19:44:15.624Z,29.74
2023-06-24T19:46:42.859Z,29.76
2023-06-24T19:49:10.857Z,29.75
2023-06-24T19:51:37.577Z,29.76
2023-06-24T19:54:04.300Z,29.74
2023-06-24T19:56:30.896Z,29.75
2023-06-24T19:58:57.407Z,29.75
2023-06-24T20:01:24.027Z,29.76
2023-06-24T20:03:50.661Z,29.77
2023-06-24T20:06:17.217Z,29.76
2023-06-24T20:08:43.917Z,29.77
2023-06-24T20:11:11.066Z,29.77
2023-06-24T20:13:37.693Z,29.75
2023-06-24T20:16:04.467Z,29.76
2023-06-24T20:18:31.038Z,29.74
2023-06-24T20:20:57.696Z,29.77
2023-06-24T20:23:24.355Z,29.75
2023-06-24T20:25:50.928Z,29.76
2023-06-24T20:28:17.485Z,29.77
2023-06-24T20:30:44.146Z,29.76
2023-06-24T20:33:10.669Z,29.74
2023-06-24T20:35:37.644Z,29.74
2023-06-24T20:38:04.379Z,29.76
2023-06-24T20:40:30.978Z,29.74
2023-06-24T20:42:57.805Z,29.75
2023-06-24T20:45:24.322Z,29.75
2023-06-24T20:47:50.914Z,29.72
2023-06-24T20:50:17.578Z,29.72
2023-06-24T20:52:44.105Z,29.74
2023-06-24T20:55:10.719Z,29.74
2023-06-24T20:57:37.444Z,29.73
2023-06-24T21:00:04.576Z,29.73
2023-06-24T21:02:34.050Z,29.72
2023-06-24T21:05:01.556Z,29.72
2023-06-24T21:07:28.243Z,29.72
2023-06-24T21:09:54.819Z,29.72
2023-06-24T21:12:21.407Z,29.71
2023-06-24T21:14:48.011Z,29.72
2023-06-24T21:17:14.617Z,29.72
2023-06-24T21:19:41.174Z,29.71
2023-06-24T21:22:07.866Z,29.71
2023-06-24T21:24:34.364Z,29.71
2023-06-24T21:27:00.898Z,29.69
2023-06-24T21:29:27.459Z,29.69
2023-06-24T21:31:54.013Z,29.68
2023-06-24T21:34:20.559Z,29.70
2023-06-24T21:36:47.116Z,29.68
2023-06-24T21:39:13.676Z,29.68
2023-06-24T21:41:41.799Z,29.68
2023-06-24T21:44:08.419Z,29.67
2023-06-24T21:46:34.992Z,29.66
2023-06-24T21:49:02.614Z,29.65
2023-06-24T21:51:29.147Z,29.66
2023-06-24T21:53:55.707Z,29.66
2023-06-24T21:56:22.227Z,29.63
2023-06-24T21:58:48.764Z,29.63
2023-06-24T22:01:15.509Z,29.63
2023-06-24T22:03:42.085Z,29.64
2023-06-24T22:06:08.653Z,29.64
2023-06-24T22:08:35.156Z,29.63
2023-06-24T22:11:01.719Z,29.62
2023-06-24T22:13:28.232Z,29.62
2023-06-24T22:15:54.855Z,29.60
2023-06-24T22:18:21.405Z,29.62
2023-06-24T22:20:48.004Z,29.60
2023-06-24T22:23:14.551Z,29.60
2023-06-24T22:25:41.068Z,29.58
2023-06-24T22:28:07.615Z,29.58
2023-06-24T22:30:34.330Z,29.58
2023-06-24T22:33:01.259Z,29.58
2023-06-24T22:35:27.847Z,29.57
2023-06-24T22:37:54.552Z,29.58
2023-06-24T22:40:21.114Z,29.56
2023-06-24T22:42:47.624Z,29.57
2023-06-24T22:45:14.297Z,29.54
2023-06-24T22:47:41.045Z,29.56
2023-06-24T22:50:09.746Z,29.54
2023-06-24T22:52:37.148Z,29.55
2023-06-24T22:55:04.375Z,29.53
2023-06-24T22:57:31.137Z,29.52
2023-06-24T22:59:57.759Z,29.52
2023-06-24T23:02:24.593Z,29.51
2023-06-24T23:04:51.550Z,29.51
2023-06-24T23:07:18.416Z,29.49
2023-06-24T23:09:45.240Z,29.51
2023-06-24T23:12:12.429Z,29.50
2023-06-24T23:14:40.794Z,29.48
2023-06-24T23:17:07.871Z,29.50
2023-06-24T23:19:35.079Z,29.49
2023-06-24T23:22:03.599Z,29.48
2023-06-24T23:24:32.461Z,29.49
2023-06-24T23:27:01.540Z,29.47
2023-06-24T23:29:28.188Z,29.47
2023-06-24T23:31:54.866Z,29.46
2023-06-24T23:34:21.735Z,29.46
2023-06-24T23:36:49.198Z,29.45
2023-06-24T23:39:16.013Z,29.46
2023-06-24T23:41:43.660Z,29.44
2023-06-24T23:44:10.796Z,29.43
2023-06-24T23:46:37.343Z,29.44
2023-06-24T23:49:04.075Z,29.41
2023-06-24T23:51:30.633Z,29.44
2023-06-24T23:53:57.222Z,29.43
2023-06-24T23:56:23.952Z,29.44
2023-06-24T23:58:50.489Z,29.42
